createdAt,value
2022-12-23T00:00:18.989Z,0.70
2022-12-23T00:01:18.950Z,0.80
2022-12-23T00:02:19.016Z,0.80
2022-12-23T00:03:19.055Z,0.90
2022-12-23T00:04:19.015Z,0.70
2022-12-23T00:05:18.969Z,0.90
2022-12-23T00:06:18.910Z,0.70
2022-12-23T00:07:18.922Z,0.90
2022-12-23T00:08:18.903Z,0.80
2022-12-23T00:09:18.889Z,1.00
2022-12-23T00:10:18.861Z,0.90
2022-12-23T00:11:18.860Z,0.70
2022-12-23T00:12:18.949Z,0.80
2022-12-23T00:13:18.962Z,1.20
2022-12-23T00:14:21.823Z,0.80
2022-12-23T00:15:18.818Z,1.00
2022-12-23T00:16:18.865Z,0.70
2022-12-23T00:17:22.539Z,0.80
2022-12-23T00:18:18.817Z,1.20
2022-12-23T00:19:18.768Z,0.90
2022-12-23T00:20:18.788Z,0.80
2022-12-23T00:21:18.770Z,1.00
2022-12-23T00:22:18.739Z,0.80
2022-12-23T00:23:18.887Z,1.00
2022-12-23T00:24:18.715Z,0.90
2022-12-23T00:25:18.727Z,1.00
2022-12-23T00:26:18.706Z,1.00
2022-12-23T00:27:18.741Z,0.80
2022-12-23T00:28:18.715Z,0.70
2022-12-23T00:29:18.680Z,0.90
2022-12-23T00:30:18.877Z,0.90
2022-12-23T00:31:18.953Z,0.80
2022-12-23T00:32:18.700Z,0.90
2022-12-23T00:33:18.715Z,0.80
2022-12-23T00:34:20.147Z,0.90
2022-12-23T00:35:18.684Z,0.60
2022-12-23T00:36:18.830Z,0.80
2022-12-23T00:37:18.597Z,0.70
2022-12-23T00:38:18.648Z,0.70
2022-12-23T00:39:18.619Z,0.90
2022-12-23T00:40:18.878Z,0.80
2022-12-23T00:41:18.608Z,0.70
2022-12-23T00:42:18.585Z,0.70
2022-12-23T00:43:18.563Z,0.70
2022-12-23T00:44:18.572Z,0.80
2022-12-23T00:45:18.538Z,1.00
2022-12-23T00:46:18.675Z,0.80
2022-12-23T00:47:18.661Z,0.70
2022-12-23T00:48:18.554Z,0.70
2022-12-23T00:49:18.547Z,0.70
2022-12-23T00:50:18.498Z,0.80
2022-12-23T00:51:18.514Z,0.60
2022-12-23T00:52:18.584Z,0.90
2022-12-23T00:53:18.518Z,0.90
2022-12-23T00:54:18.507Z,0.70
2022-12-23T00:55:18.554Z,0.60
2022-12-23T00:56:18.399Z,0.70
2022-12-23T00:57:18.389Z,0.70
2022-12-23T00:58:18.382Z,0.80
2022-12-23T00:59:18.556Z,0.60
2022-12-23T01:00:18.579Z,0.80
2022-12-23T01:01:18.424Z,0.70
2022-12-23T01:02:18.504Z,0.90
2022-12-23T01:03:18.560Z,0.80
2022-12-23T01:04:18.363Z,0.80
2022-12-23T01:05:18.324Z,0.70
2022-12-23T01:06:18.335Z,0.60
2022-12-23T01:07:18.328Z,0.90
2022-12-23T01:08:18.278Z,0.70
2022-12-23T01:09:18.305Z,0.60
2022-12-23T01:10:18.296Z,0.80
2022-12-23T01:11:18.291Z,0.80
2022-12-23T01:12:18.253Z,0.80
2022-12-23T01:13:18.288Z,0.80
2022-12-23T01:14:18.288Z,0.60
2022-12-23T01:15:18.220Z,0.70
2022-12-23T01:16:18.288Z,0.90
2022-12-23T01:17:18.237Z,0.70
2022-12-23T01:18:18.194Z,0.70
2022-12-23T01:19:18.224Z,0.70
2022-12-23T01:20:18.363Z,0.70
2022-12-23T01:21:18.147Z,0.70
2022-12-23T01:22:18.147Z,0.70
2022-12-23T01:23:18.140Z,0.50
2022-12-23T01:24:18.186Z,0.50
2022-12-23T01:25:18.154Z,0.70
2022-12-23T01:26:18.118Z,0.70
2022-12-23T01:27:18.102Z,0.70
2022-12-23T01:28:18.083Z,0.70
2022-12-23T01:29:18.115Z,0.50
2022-12-23T01:30:18.082Z,0.60
2022-12-23T01:31:18.125Z,0.60
2022-12-23T01:32:18.114Z,0.50
2022-12-23T01:33:18.048Z,0.60
2022-12-23T01:34:18.059Z,0.70
2022-12-23T01:35:18.019Z,0.70
2022-12-23T01:36:18.116Z,0.50
2022-12-23T01:37:18.016Z,0.70
2022-12-23T01:38:18.025Z,0.60
2022-12-23T01:39:18.012Z,0.60
2022-12-23T01:40:17.981Z,0.60
2022-12-23T01:41:17.978Z,0.70
2022-12-23T01:42:17.944Z,0.60
2022-12-23T01:43:17.955Z,0.70
2022-12-23T01:44:17.954Z,0.60
2022-12-23T01:45:17.932Z,0.80
2022-12-23T01:46:17.953Z,0.60
2022-12-23T01:47:17.925Z,0.60
2022-12-23T01:48:17.958Z,0.60
2022-12-23T01:49:17.877Z,0.60
2022-12-23T01:50:17.889Z,0.60
2022-12-23T01:51:17.881Z,0.60
2022-12-23T01:52:17.875Z,0.70
2022-12-23T01:53:17.835Z,0.70
2022-12-23T01:54:18.000Z,0.50
2022-12-23T01:55:17.867Z,0.60
2022-12-23T01:56:17.823Z,0.50
2022-12-23T01:57:17.817Z,0.50
2022-12-23T01:58:17.789Z,0.60
2022-12-23T01:59:17.778Z,0.60
2022-12-23T02:00:17.815Z,0.70
2022-12-23T02:01:17.790Z,0.60
2022-12-23T02:02:18.021Z,0.50
2022-12-23T02:03:17.933Z,0.40
2022-12-23T02:04:17.743Z,0.50
2022-12-23T02:05:17.747Z,0.50
2022-12-23T02:06:17.730Z,0.40
2022-12-23T02:07:17.732Z,0.50
2022-12-23T02:08:17.691Z,0.60
2022-12-23T02:09:17.751Z,0.40
2022-12-23T02:10:17.691Z,0.60
2022-12-23T02:11:17.692Z,0.50
2022-12-23T02:12:17.657Z,0.50
2022-12-23T02:13:17.691Z,0.60
2022-12-23T02:14:17.706Z,0.50
2022-12-23T02:15:17.617Z,0.70
2022-12-23T02:16:17.695Z,0.50
2022-12-23T02:17:17.623Z,0.50
2022-12-23T02:18:17.631Z,0.50
2022-12-23T02:19:17.609Z,0.50
2022-12-23T02:20:17.585Z,0.50
2022-12-23T02:21:17.656Z,0.60
2022-12-23T02:22:17.568Z,0.60
2022-12-23T02:23:17.550Z,0.50
2022-12-23T02:24:17.636Z,0.60
2022-12-23T02:25:17.525Z,0.80
2022-12-23T02:26:17.531Z,0.50
2022-12-23T02:27:17.527Z,0.70
2022-12-23T02:28:17.800Z,0.70
2022-12-23T02:29:17.535Z,0.70
2022-12-23T02:30:17.481Z,0.70
2022-12-23T02:31:17.544Z,0.60
2022-12-23T02:32:17.484Z,0.70
2022-12-23T02:33:17.437Z,0.70
2022-12-23T02:34:17.478Z,0.60
2022-12-23T02:35:17.446Z,0.70
2022-12-23T02:36:17.423Z,0.60
2022-12-23T02:37:17.417Z,0.80
2022-12-23T02:38:17.394Z,0.60
2022-12-23T02:39:17.378Z,0.60
2022-12-23T02:40:17.410Z,0.60
2022-12-23T02:41:17.357Z,0.80
2022-12-23T02:42:17.358Z,0.60
2022-12-23T02:43:17.342Z,0.70
2022-12-23T02:44:17.370Z,0.70
2022-12-23T02:45:17.328Z,0.60
2022-12-23T02:46:17.398Z,0.80
2022-12-23T02:47:17.363Z,0.60
2022-12-23T02:48:17.300Z,0.70
2022-12-23T02:49:17.335Z,0.60
2022-12-23T02:50:17.288Z,0.50
2022-12-23T02:51:17.316Z,0.60
2022-12-23T02:52:17.292Z,0.50
2022-12-23T02:53:17.335Z,0.60
2022-12-23T02:54:17.233Z,0.70
2022-12-23T02:55:17.239Z,0.60
2022-12-23T02:56:17.241Z,0.60
2022-12-23T02:57:17.226Z,0.60
2022-12-23T02:58:17.229Z,0.60
2022-12-23T02:59:17.198Z,0.60
2022-12-23T03:00:17.170Z,0.70
2022-12-23T03:01:17.237Z,0.50
2022-12-23T03:02:17.426Z,0.70
2022-12-23T03:03:17.349Z,0.70
2022-12-23T03:04:17.136Z,0.60
2022-12-23T03:05:17.126Z,0.60
2022-12-23T03:06:17.158Z,0.50
2022-12-23T03:07:18.774Z,0.50
2022-12-23T03:08:17.121Z,0.60
2022-12-23T03:09:17.091Z,0.70
2022-12-23T03:10:17.094Z,0.60
2022-12-23T03:11:17.134Z,0.80
2022-12-23T03:12:17.119Z,0.60
2022-12-23T03:13:17.104Z,0.60
2022-12-23T03:14:17.108Z,0.70
2022-12-23T03:15:17.068Z,0.50
2022-12-23T03:16:17.136Z,0.60
2022-12-23T03:17:17.018Z,0.50
2022-12-23T03:18:17.036Z,0.80
2022-12-23T03:19:17.057Z,0.60
2022-12-23T03:20:17.013Z,0.60
2022-12-23T03:21:17.119Z,0.40
2022-12-23T03:22:16.980Z,0.60
2022-12-23T03:23:16.961Z,0.60
2022-12-23T03:24:17.264Z,0.60
2022-12-23T03:25:16.984Z,0.50
2022-12-23T03:26:16.920Z,0.40
2022-12-23T03:27:16.921Z,0.60
2022-12-23T03:28:16.916Z,0.70
2022-12-23T03:29:16.902Z,0.60
2022-12-23T03:30:16.917Z,0.50
2022-12-23T03:31:17.002Z,0.70
2022-12-23T03:32:16.881Z,0.50
2022-12-23T03:33:16.882Z,0.60
2022-12-23T03:34:16.851Z,0.60
2022-12-23T03:35:16.902Z,0.60
2022-12-23T03:36:16.830Z,0.50
2022-12-23T03:37:16.840Z,0.70
2022-12-23T03:38:16.820Z,0.60
2022-12-23T03:39:16.804Z,0.70
2022-12-23T03:40:16.787Z,0.50
2022-12-23T03:41:16.784Z,0.60
2022-12-23T03:42:16.777Z,0.60
2022-12-23T03:43:16.771Z,0.60
2022-12-23T03:44:16.782Z,0.60
2022-12-23T03:45:40.371Z,0.70
2022-12-23T03:46:16.781Z,0.80
2022-12-23T03:47:16.739Z,0.70
2022-12-23T03:48:16.721Z,0.80
2022-12-23T03:49:16.694Z,0.80
2022-12-23T03:50:16.742Z,0.60
2022-12-23T03:51:16.691Z,0.70
2022-12-23T03:52:21.110Z,0.60
2022-12-23T03:53:16.685Z,0.60
2022-12-23T03:54:16.662Z,0.70
2022-12-23T03:55:16.624Z,0.60
2022-12-23T03:56:16.634Z,0.60
2022-12-23T03:57:16.728Z,0.50
2022-12-23T03:58:16.601Z,0.70
2022-12-23T03:59:16.612Z,0.60
2022-12-23T04:00:16.625Z,0.50
2022-12-23T04:01:17.947Z,0.60
2022-12-23T04:02:16.726Z,0.60
2022-12-23T04:03:16.574Z,0.70
2022-12-23T04:04:16.613Z,0.50
2022-12-23T04:05:16.541Z,0.60
2022-12-23T04:06:16.544Z,0.60
2022-12-23T04:07:16.541Z,0.50
2022-12-23T04:08:16.541Z,0.50
2022-12-23T04:09:21.684Z,0.60
2022-12-23T04:10:16.497Z,0.60
2022-12-23T04:11:16.498Z,0.60
2022-12-23T04:12:16.461Z,0.60
2022-12-23T04:13:16.468Z,0.50
2022-12-23T04:14:16.451Z,0.50
2022-12-23T04:15:16.448Z,0.50
2022-12-23T04:16:16.495Z,0.40
2022-12-23T04:17:16.484Z,0.50
2022-12-23T04:18:16.542Z,0.50
2022-12-23T04:19:16.459Z,0.60
2022-12-23T04:20:16.388Z,0.40
2022-12-23T04:21:16.406Z,0.50
2022-12-23T04:22:16.385Z,0.40
2022-12-23T04:23:16.415Z,0.50
2022-12-23T04:24:16.369Z,0.40
2022-12-23T04:25:16.359Z,0.40
2022-12-23T04:26:16.332Z,0.40
2022-12-23T04:27:16.312Z,0.50
2022-12-23T04:28:16.303Z,0.40
2022-12-23T04:29:16.347Z,0.40
2022-12-23T04:30:16.302Z,0.50
2022-12-23T04:31:16.364Z,0.50
2022-12-23T04:32:16.301Z,0.40
2022-12-23T04:33:16.271Z,0.50
2022-12-23T04:34:16.267Z,0.50
2022-12-23T04:35:16.237Z,0.40
2022-12-23T04:36:16.280Z,0.60
2022-12-23T04:37:16.240Z,0.50
2022-12-23T04:38:16.215Z,0.40
2022-12-23T04:39:16.190Z,0.50
2022-12-23T04:40:16.188Z,0.50
2022-12-23T04:41:16.199Z,0.40
2022-12-23T04:42:16.165Z,0.60
2022-12-23T04:43:16.255Z,0.50
2022-12-23T04:44:16.151Z,0.60
2022-12-23T04:45:16.146Z,0.50
2022-12-23T04:46:16.205Z,0.70
2022-12-23T04:47:16.125Z,0.80
2022-12-23T04:48:16.168Z,0.70
2022-12-23T04:49:16.229Z,0.70
2022-12-23T04:50:16.121Z,0.70
2022-12-23T04:51:16.134Z,0.80
2022-12-23T04:52:16.067Z,0.60
2022-12-23T04:53:16.163Z,0.70
2022-12-23T04:54:16.054Z,0.70
2022-12-23T04:55:16.057Z,0.70
2022-12-23T04:56:16.136Z,0.70
2022-12-23T04:57:16.029Z,0.80
2022-12-23T04:58:16.038Z,0.60
2022-12-23T04:59:16.022Z,0.50
2022-12-23T05:00:16.000Z,0.80
2022-12-23T05:01:16.065Z,0.60
2022-12-23T05:02:16.207Z,0.50
2022-12-23T05:03:16.156Z,0.60
2022-12-23T05:04:16.000Z,0.70
2022-12-23T05:05:15.973Z,0.60
2022-12-23T05:06:15.943Z,0.60
2022-12-23T05:07:15.939Z,0.70
2022-12-23T05:08:16.072Z,0.70
2022-12-23T05:09:16.029Z,0.60
2022-12-23T05:10:15.925Z,0.70
2022-12-23T05:11:15.903Z,0.50
2022-12-23T05:12:15.868Z,0.60
2022-12-23T05:13:15.889Z,0.50
2022-12-23T05:14:15.907Z,0.60
2022-12-23T05:15:15.882Z,0.80
2022-12-23T05:16:15.902Z,0.60
2022-12-23T05:17:15.866Z,0.60
2022-12-23T05:18:15.814Z,0.60
2022-12-23T05:19:15.814Z,0.50
2022-12-23T05:20:15.795Z,0.50
2022-12-23T05:21:15.803Z,0.60
2022-12-23T05:22:15.771Z,0.70
2022-12-23T05:23:15.868Z,0.70
2022-12-23T05:24:15.791Z,0.70
2022-12-23T05:25:15.754Z,0.70
2022-12-23T05:26:15.788Z,0.90
2022-12-23T05:27:15.729Z,0.80
2022-12-23T05:28:15.718Z,0.80
2022-12-23T05:29:15.737Z,0.80
2022-12-23T05:30:15.732Z,0.90
2022-12-23T05:31:15.730Z,0.90
2022-12-23T05:32:15.721Z,0.80
2022-12-23T05:33:15.904Z,0.80
2022-12-23T05:34:15.669Z,0.70
2022-12-23T05:35:15.655Z,0.80
2022-12-23T05:36:15.673Z,0.70
2022-12-23T05:37:15.657Z,0.80
2022-12-23T05:38:15.627Z,1.00
2022-12-23T05:39:15.644Z,0.90
2022-12-23T05:40:21.607Z,0.90
2022-12-23T05:41:15.593Z,1.10
2022-12-23T05:42:15.584Z,1.10
2022-12-23T05:43:15.576Z,0.70
2022-12-23T05:44:15.564Z,0.90
2022-12-23T05:45:15.579Z,0.90
2022-12-23T05:46:17.715Z,0.80
2022-12-23T05:47:15.564Z,0.90
2022-12-23T05:48:15.530Z,1.00
2022-12-23T05:49:15.589Z,0.80
2022-12-23T05:50:15.532Z,0.80
2022-12-23T05:51:15.483Z,0.80
2022-12-23T05:52:15.574Z,1.00
2022-12-23T05:53:15.479Z,0.90
2022-12-23T05:54:15.452Z,1.10
2022-12-23T05:55:15.536Z,1.00
2022-12-23T05:56:15.428Z,1.00
2022-12-23T05:57:15.445Z,0.90
2022-12-23T05:58:15.471Z,1.10
2022-12-23T05:59:15.469Z,1.20
2022-12-23T06:00:15.401Z,1.20
2022-12-23T06:01:15.401Z,1.20
2022-12-23T06:02:15.576Z,1.30
2022-12-23T06:03:15.624Z,1.10
2022-12-23T06:04:15.429Z,1.10
2022-12-23T06:05:15.388Z,1.30
2022-12-23T06:06:15.364Z,1.10
2022-12-23T06:07:15.346Z,1.20
2022-12-23T06:08:15.337Z,1.20
2022-12-23T06:09:15.323Z,1.30
2022-12-23T06:10:15.309Z,1.00
2022-12-23T06:11:15.287Z,1.30
2022-12-23T06:12:15.296Z,1.10
2022-12-23T06:13:15.321Z,1.30
2022-12-23T06:14:15.324Z,1.40
2022-12-23T06:15:15.268Z,1.10
2022-12-23T06:16:15.306Z,1.30
2022-12-23T06:17:15.253Z,0.90
2022-12-23T06:18:15.258Z,0.90
2022-12-23T06:19:15.272Z,1.00
2022-12-23T06:20:20.300Z,1.20
2022-12-23T06:21:15.218Z,1.50
2022-12-23T06:22:15.262Z,1.20
2022-12-23T06:23:15.206Z,1.20
2022-12-23T06:24:15.168Z,1.00
2022-12-23T06:25:15.170Z,1.30
2022-12-23T06:26:15.176Z,1.50
2022-12-23T06:27:15.142Z,1.40
2022-12-23T06:28:15.169Z,1.20
2022-12-23T06:29:15.123Z,1.10
2022-12-23T06:30:15.120Z,1.20
2022-12-23T06:31:15.162Z,1.60
2022-12-23T06:32:15.247Z,1.40
2022-12-23T06:33:15.072Z,1.30
2022-12-23T06:34:15.065Z,1.20
2022-12-23T06:35:15.026Z,1.10
2022-12-23T06:36:14.988Z,1.00
2022-12-23T06:37:15.020Z,0.80
2022-12-23T06:38:15.018Z,1.10
2022-12-23T06:39:15.032Z,0.80
2022-12-23T06:40:15.013Z,0.90
2022-12-23T06:41:14.968Z,1.50
2022-12-23T06:42:14.975Z,1.80
2022-12-23T06:43:14.960Z,1.80
2022-12-23T06:44:14.919Z,1.70
2022-12-23T06:45:14.929Z,0.80
2022-12-23T06:46:14.965Z,1.60
2022-12-23T06:47:14.903Z,1.20
2022-12-23T06:48:14.897Z,0.90
2022-12-23T06:49:14.865Z,1.10
2022-12-23T06:50:14.912Z,0.90
2022-12-23T06:51:14.910Z,0.70
2022-12-23T06:52:14.827Z,0.80
2022-12-23T06:53:14.827Z,0.60
2022-12-23T06:54:14.812Z,0.90
2022-12-23T06:55:14.837Z,0.90
2022-12-23T06:56:14.816Z,1.20
2022-12-23T06:57:14.902Z,1.00
2022-12-23T06:58:14.790Z,1.10
2022-12-23T06:59:14.780Z,0.90
2022-12-23T07:00:14.766Z,0.80
2022-12-23T07:01:14.762Z,0.90
2022-12-23T07:02:14.915Z,0.90
2022-12-23T07:03:14.790Z,0.80
2022-12-23T07:04:14.717Z,1.10
2022-12-23T07:05:14.719Z,1.00
2022-12-23T07:06:14.713Z,0.80
2022-12-23T07:07:14.684Z,1.10
2022-12-23T07:08:14.690Z,1.00
2022-12-23T07:09:14.667Z,0.90
2022-12-23T07:10:14.732Z,0.90
2022-12-23T07:11:14.696Z,0.80
2022-12-23T07:12:14.646Z,0.70
2022-12-23T07:13:14.661Z,1.00
2022-12-23T07:14:14.634Z,1.00
2022-12-23T07:15:14.616Z,0.90
2022-12-23T07:16:14.758Z,1.10
2022-12-23T07:17:14.583Z,1.10
2022-12-23T07:18:14.610Z,0.90
2022-12-23T07:19:14.568Z,1.00
2022-12-23T07:20:14.561Z,0.80
2022-12-23T07:21:22.927Z,1.10
2022-12-23T07:22:14.558Z,1.30
2022-12-23T07:23:14.521Z,0.90
2022-12-23T07:24:14.509Z,1.10
2022-12-23T07:25:14.600Z,1.10
2022-12-23T07:26:14.500Z,1.10
2022-12-23T07:27:14.536Z,1.10
2022-12-23T07:28:14.476Z,1.10
2022-12-23T07:29:14.482Z,0.90
2022-12-23T07:30:14.488Z,1.10
2022-12-23T07:31:14.493Z,1.00
2022-12-23T07:32:14.453Z,1.00
2022-12-23T07:33:14.475Z,1.20
2022-12-23T07:34:14.451Z,1.10
2022-12-23T07:35:14.407Z,1.10
2022-12-23T07:36:14.418Z,1.20
2022-12-23T07:37:14.406Z,1.00
2022-12-23T07:38:14.399Z,1.00
2022-12-23T07:39:14.408Z,0.90
2022-12-23T07:40:14.519Z,1.00
2022-12-23T07:41:14.377Z,1.00
2022-12-23T07:42:43.689Z,0.90
2022-12-23T07:43:14.358Z,0.80
2022-12-23T07:44:14.363Z,0.80
2022-12-23T07:45:14.409Z,0.90
2022-12-23T07:46:14.384Z,0.90
2022-12-23T07:47:14.483Z,0.80
2022-12-23T07:48:14.268Z,0.90
2022-12-23T07:49:14.389Z,0.90
2022-12-23T07:50:14.431Z,0.80
2022-12-23T07:51:14.263Z,0.80
2022-12-23T07:52:14.252Z,1.10
2022-12-23T07:53:14.285Z,0.90
2022-12-23T07:54:14.256Z,1.00
2022-12-23T07:55:14.227Z,0.90
2022-12-23T07:56:14.192Z,0.80
2022-12-23T07:57:14.241Z,0.70
2022-12-23T07:58:14.181Z,0.80
2022-12-23T07:59:14.233Z,0.80
2022-12-23T08:00:14.227Z,0.80
2022-12-23T08:01:14.230Z,0.90
2022-12-23T08:02:14.307Z,0.80
2022-12-23T08:03:14.360Z,0.90
2022-12-23T08:04:14.181Z,0.80
2022-12-23T08:05:14.254Z,0.90
2022-12-23T08:06:14.304Z,1.30
2022-12-23T08:07:14.166Z,1.40
2022-12-23T08:08:14.079Z,1.40
2022-12-23T08:09:14.150Z,1.30
2022-12-23T08:10:14.083Z,1.10
2022-12-23T08:11:14.093Z,1.20
2022-12-23T08:12:14.051Z,1.20
2022-12-23T08:13:14.061Z,0.80
2022-12-23T08:14:14.028Z,0.90
2022-12-23T08:15:14.055Z,1.00
2022-12-23T08:16:14.039Z,0.90
2022-12-23T08:17:14.055Z,1.00
2022-12-23T08:18:13.973Z,1.00
2022-12-23T08:19:14.026Z,0.90
2022-12-23T08:20:13.980Z,1.00
2022-12-23T08:21:13.998Z,0.90
2022-12-23T08:22:13.956Z,1.20
2022-12-23T08:23:13.947Z,0.80
2022-12-23T08:24:13.990Z,0.90
2022-12-23T08:25:13.932Z,1.00
2022-12-23T08:26:13.946Z,0.90
2022-12-23T08:27:13.975Z,0.80
2022-12-23T08:28:13.950Z,0.70
2022-12-23T08:29:13.905Z,0.80
2022-12-23T08:30:13.855Z,0.80
2022-12-23T08:31:14.016Z,1.00
2022-12-23T08:32:13.892Z,0.80
2022-12-23T08:33:14.214Z,0.70
2022-12-23T08:34:13.839Z,1.10
2022-12-23T08:35:13.959Z,0.70
2022-12-23T08:36:17.595Z,0.90
2022-12-23T08:37:13.854Z,0.80
2022-12-23T08:38:13.778Z,0.90
2022-12-23T08:39:13.818Z,0.80
2022-12-23T08:40:13.838Z,0.90
2022-12-23T08:41:13.788Z,0.90
2022-12-23T08:42:13.749Z,1.10
2022-12-23T08:43:13.810Z,1.00
2022-12-23T08:44:13.740Z,1.00
2022-12-23T08:45:13.767Z,1.00
2022-12-23T08:46:13.803Z,0.80
2022-12-23T08:47:13.700Z,1.00
2022-12-23T08:48:13.716Z,0.90
2022-12-23T08:49:13.678Z,0.80
2022-12-23T08:50:13.704Z,0.90
2022-12-23T08:51:13.649Z,1.00
2022-12-23T08:52:13.674Z,0.80
2022-12-23T08:53:13.642Z,0.80
2022-12-23T08:54:13.613Z,0.70
2022-12-23T08:55:13.663Z,0.80
2022-12-23T08:56:13.619Z,0.80
2022-12-23T08:57:13.793Z,0.80
2022-12-23T08:58:13.592Z,0.70
2022-12-23T08:59:18.730Z,0.80
2022-12-23T09:00:13.590Z,0.80
2022-12-23T09:01:13.610Z,0.90
2022-12-23T09:02:13.721Z,0.70
2022-12-23T09:03:13.682Z,0.90
2022-12-23T09:04:13.515Z,0.90
2022-12-23T09:05:13.504Z,0.90
2022-12-23T09:06:13.493Z,0.90
2022-12-23T09:07:13.486Z,0.80
2022-12-23T09:08:13.499Z,1.00
2022-12-23T09:09:13.471Z,0.70
2022-12-23T09:10:13.522Z,1.00
2022-12-23T09:11:13.459Z,0.80
2022-12-23T09:12:13.479Z,0.80
2022-12-23T09:13:19.983Z,0.90
2022-12-23T09:14:13.436Z,0.90
2022-12-23T09:15:13.419Z,0.70
2022-12-23T09:16:13.476Z,0.80
2022-12-23T09:17:13.399Z,0.90
2022-12-23T09:18:13.414Z,0.90
2022-12-23T09:19:13.363Z,0.90
2022-12-23T09:20:13.376Z,0.80
2022-12-23T09:21:13.358Z,1.00
2022-12-23T09:22:13.395Z,0.80
2022-12-23T09:23:13.326Z,1.00
2022-12-23T09:24:13.325Z,0.70
2022-12-23T09:25:13.366Z,0.70
2022-12-23T09:26:13.329Z,0.80
2022-12-23T09:27:13.360Z,0.80
2022-12-23T09:28:13.277Z,0.50
2022-12-23T09:29:13.304Z,0.70
2022-12-23T09:30:13.292Z,0.60
2022-12-23T09:31:13.573Z,0.70
2022-12-23T09:32:13.273Z,0.60
2022-12-23T09:33:13.309Z,0.60
2022-12-23T09:34:13.214Z,0.70
2022-12-23T09:35:13.215Z,0.70
2022-12-23T09:36:14.092Z,0.60
2022-12-23T09:37:13.186Z,0.70
2022-12-23T09:38:13.197Z,0.80
2022-12-23T09:39:13.176Z,0.60
2022-12-23T09:40:13.175Z,0.70
2022-12-23T09:41:13.157Z,0.80
2022-12-23T09:42:13.169Z,0.70
2022-12-23T09:43:13.151Z,0.60
2022-12-23T09:44:13.136Z,0.50
2022-12-23T09:45:13.155Z,0.60
2022-12-23T09:46:13.293Z,0.80
2022-12-23T09:47:13.110Z,1.10
2022-12-23T09:48:13.097Z,1.30
2022-12-23T09:49:13.095Z,1.20
2022-12-23T09:50:13.080Z,0.90
2022-12-23T09:51:13.099Z,1.00
2022-12-23T09:52:13.099Z,0.90
2022-12-23T09:53:13.071Z,0.90
2022-12-23T09:54:16.888Z,1.10
2022-12-23T09:55:13.036Z,0.80
2022-12-23T09:56:13.028Z,0.80
2022-12-23T09:57:13.017Z,0.80
2022-12-23T09:58:13.020Z,0.70
2022-12-23T09:59:12.997Z,0.60
2022-12-23T10:00:12.982Z,0.80
2022-12-23T10:01:12.962Z,0.80
2022-12-23T10:02:13.033Z,0.80
2022-12-23T10:03:13.265Z,0.80
2022-12-23T10:04:12.978Z,0.80
2022-12-23T10:05:12.999Z,0.80
2022-12-23T10:06:12.984Z,0.70
2022-12-23T10:07:12.973Z,0.60
2022-12-23T10:08:12.932Z,0.60
2022-12-23T10:09:12.958Z,0.70
2022-12-23T10:10:12.867Z,0.90
2022-12-23T10:11:12.874Z,0.90
2022-12-23T10:12:12.862Z,0.90
2022-12-23T10:13:12.852Z,0.90
2022-12-23T10:14:12.825Z,0.90
2022-12-23T10:15:12.812Z,0.90
2022-12-23T10:16:13.890Z,0.70
2022-12-23T10:17:12.960Z,0.80
2022-12-23T10:18:12.824Z,0.90
2022-12-23T10:19:12.788Z,1.00
2022-12-23T10:20:12.775Z,1.10
2022-12-23T10:21:12.798Z,1.10
2022-12-23T10:22:12.789Z,1.00
2022-12-23T10:23:12.736Z,1.10
2022-12-23T10:24:12.794Z,1.10
2022-12-23T10:25:12.755Z,1.10
2022-12-23T10:26:12.731Z,1.30
2022-12-23T10:27:12.738Z,1.30
2022-12-23T10:28:12.739Z,1.40
2022-12-23T10:29:18.383Z,1.20
2022-12-23T10:30:42.028Z,1.20
2022-12-23T10:31:41.893Z,1.50
2022-12-23T10:32:12.695Z,1.20
2022-12-23T10:33:12.720Z,1.30
2022-12-23T10:34:12.629Z,1.30
2022-12-23T10:35:12.636Z,1.20
2022-12-23T10:36:12.734Z,1.20
2022-12-23T10:37:12.678Z,1.30
2022-12-23T10:38:12.681Z,1.30
2022-12-23T10:39:12.568Z,1.30
2022-12-23T10:40:12.615Z,1.30
2022-12-23T10:41:12.602Z,1.40
2022-12-23T10:42:12.624Z,1.20
2022-12-23T10:43:12.532Z,1.30
2022-12-23T10:44:12.561Z,1.20
2022-12-23T10:45:12.512Z,1.40
2022-12-23T10:46:12.575Z,1.20
2022-12-23T10:47:12.660Z,1.30
2022-12-23T10:48:14.423Z,1.40
2022-12-23T10:49:12.484Z,1.30
2022-12-23T10:50:12.474Z,1.10
2022-12-23T10:51:12.482Z,1.20
2022-12-23T10:52:12.452Z,1.30
2022-12-23T10:53:12.456Z,1.40
2022-12-23T10:54:12.445Z,1.30
2022-12-23T10:55:12.428Z,1.20
2022-12-23T10:56:12.412Z,1.20
2022-12-23T10:57:12.431Z,1.20
2022-12-23T10:58:12.385Z,1.20
2022-12-23T10:59:12.425Z,1.00
2022-12-23T11:00:12.443Z,1.40
2022-12-23T11:01:18.873Z,1.30
2022-12-23T11:02:12.588Z,1.10
2022-12-23T11:03:12.440Z,1.10
2022-12-23T11:04:12.352Z,1.20
2022-12-23T11:05:12.318Z,1.40
2022-12-23T11:06:12.332Z,1.20
2022-12-23T11:07:42.773Z,1.20
2022-12-23T11:08:12.350Z,1.00
2022-12-23T11:09:12.298Z,1.00
2022-12-23T11:10:12.297Z,1.10
2022-12-23T11:11:12.301Z,1.20
2022-12-23T11:12:12.266Z,1.00
2022-12-23T11:13:12.234Z,1.20
2022-12-23T11:14:12.350Z,1.10
2022-12-23T11:15:12.331Z,1.20
2022-12-23T11:16:12.304Z,1.10
2022-12-23T11:17:12.204Z,1.00
2022-12-23T11:18:12.246Z,1.20
2022-12-23T11:19:12.202Z,1.30
2022-12-23T11:20:12.247Z,1.40
2022-12-23T11:21:12.163Z,1.20
2022-12-23T11:22:12.245Z,1.10
2022-12-23T11:23:12.180Z,1.20
2022-12-23T11:24:12.127Z,1.10
2022-12-23T11:25:12.145Z,1.20
2022-12-23T11:26:12.135Z,1.10
2022-12-23T11:27:12.113Z,1.10
2022-12-23T11:28:12.117Z,1.00
2022-12-23T11:29:12.124Z,1.30
2022-12-23T11:30:12.088Z,1.20
2022-12-23T11:31:12.460Z,1.20
2022-12-23T11:32:12.078Z,1.20
2022-12-23T11:33:12.042Z,1.10
2022-12-23T11:34:12.056Z,1.20
2022-12-23T11:35:12.026Z,1.10
2022-12-23T11:36:12.343Z,1.30
2022-12-23T11:37:12.025Z,1.40
2022-12-23T11:38:12.032Z,1.20
2022-12-23T11:39:11.986Z,1.20
2022-12-23T11:40:11.971Z,1.30
2022-12-23T11:41:12.008Z,1.60
2022-12-23T11:42:11.978Z,1.10
2022-12-23T11:43:12.075Z,1.10
2022-12-23T11:44:11.964Z,1.20
2022-12-23T11:45:11.955Z,1.40
2022-12-23T11:46:11.999Z,1.10
2022-12-23T11:47:11.929Z,1.40
2022-12-23T11:48:11.954Z,1.20
2022-12-23T11:49:11.910Z,1.10
2022-12-23T11:50:11.908Z,1.10
2022-12-23T11:51:11.867Z,1.10
2022-12-23T11:52:11.885Z,1.00
2022-12-23T11:53:11.851Z,1.10
2022-12-23T11:54:11.933Z,1.20
2022-12-23T11:55:11.831Z,1.10
2022-12-23T11:56:11.806Z,1.20
2022-12-23T11:57:11.924Z,0.90
2022-12-23T11:58:11.807Z,1.20
2022-12-23T11:59:11.788Z,1.50
2022-12-23T12:00:11.973Z,1.50
2022-12-23T12:01:11.805Z,1.20
2022-12-23T12:02:11.842Z,1.20
2022-12-23T12:03:11.799Z,1.10
2022-12-23T12:04:11.748Z,0.90
2022-12-23T12:05:11.723Z,0.80
2022-12-23T12:06:11.713Z,0.80
2022-12-23T12:07:11.741Z,0.80
2022-12-23T12:08:11.711Z,0.70
2022-12-23T12:09:11.694Z,0.80
2022-12-23T12:10:11.749Z,0.80
2022-12-23T12:11:11.658Z,0.80
2022-12-23T12:12:11.675Z,0.70
2022-12-23T12:13:11.683Z,0.90
2022-12-23T12:14:11.728Z,0.80
2022-12-23T12:15:11.659Z,0.80
2022-12-23T12:16:11.706Z,0.80
2022-12-23T12:17:11.648Z,0.70
2022-12-23T12:18:11.586Z,0.80
2022-12-23T12:19:11.628Z,0.70
2022-12-23T12:20:11.588Z,1.00
2022-12-23T12:21:11.572Z,0.80
2022-12-23T12:22:11.548Z,0.90
2022-12-23T12:23:11.554Z,0.90
2022-12-23T12:24:19.781Z,1.00
2022-12-23T12:25:11.536Z,0.90
2022-12-23T12:26:11.525Z,1.00
2022-12-23T12:27:11.540Z,1.10
2022-12-23T12:28:11.540Z,1.30
2022-12-23T12:29:11.572Z,1.30
2022-12-23T12:30:11.478Z,1.60
2022-12-23T12:31:11.585Z,1.10
2022-12-23T12:32:11.562Z,1.50
2022-12-23T12:33:11.430Z,1.50
2022-12-23T12:34:11.434Z,1.40
2022-12-23T12:35:11.431Z,1.30
2022-12-23T12:36:11.419Z,1.20
2022-12-23T12:37:11.478Z,1.10
2022-12-23T12:38:11.390Z,1.10
2022-12-23T12:39:11.422Z,1.20
2022-12-23T12:40:11.383Z,1.30
2022-12-23T12:41:11.388Z,1.40
2022-12-23T12:42:11.358Z,1.40
2022-12-23T12:43:11.354Z,1.60
2022-12-23T12:44:11.348Z,1.50
2022-12-23T12:45:11.320Z,1.30
2022-12-23T12:46:11.405Z,1.50
2022-12-23T12:47:36.098Z,1.50
2022-12-23T12:48:18.215Z,1.40
2022-12-23T12:49:11.297Z,1.40
2022-12-23T12:50:11.296Z,1.50
2022-12-23T12:51:11.245Z,1.30
2022-12-23T12:52:11.243Z,1.20
2022-12-23T12:53:11.275Z,1.50
2022-12-23T12:54:11.289Z,1.30
2022-12-23T12:55:11.231Z,1.30
2022-12-23T12:56:12.031Z,1.50
2022-12-23T12:57:12.017Z,1.40
2022-12-23T12:58:11.435Z,1.70
2022-12-23T12:59:11.208Z,2.90
2022-12-23T13:00:11.371Z,1.50
2022-12-23T13:01:11.190Z,1.40
2022-12-23T13:02:11.313Z,1.30
2022-12-23T13:03:11.148Z,1.30
2022-12-23T13:04:11.176Z,1.30
2022-12-23T13:05:11.142Z,1.30
2022-12-23T13:06:11.246Z,1.30
2022-12-23T13:07:11.117Z,1.20
2022-12-23T13:08:11.083Z,1.20
2022-12-23T13:09:11.089Z,1.30
2022-12-23T13:10:11.075Z,1.00
2022-12-23T13:11:11.056Z,1.00
2022-12-23T13:12:11.086Z,1.00
2022-12-23T13:13:11.049Z,0.90
2022-12-23T13:14:11.022Z,1.00
2022-12-23T13:15:11.036Z,1.10
2022-12-23T13:16:11.014Z,0.90
2022-12-23T13:17:11.010Z,1.10
2022-12-23T13:18:10.977Z,0.90